Takeley, United Kingdom
Current Conditions -  °F | °C
As of 8:20 AM on Friday 28 Nov 2014 (Local Time) from EGSS Reporting Station
Haze Haze  
Wind Chill: 11°   Ceiling: 400
Heat Index: 11°   Visibility: 2.8mi
Dew Point: 10°   Wind: 12mph
Humidity: 94%   Direction: 80°E
Pressure: 29.62"   Gusts: NA
Location:  51.87°N, 0.27°E
Report Text: EGSS 280820Z 08010KT 4500 BR OVC004 11/10 Q1003
Loading
Personal Weather Stations






























Interactive Weather Map New forecast layout! Learn more

10-Day Weather Forecast

Advertisements
Track Severe Weather on mobile